createdAt,value
2018-11-05T00:00:36.596Z,13.57
2018-11-05T00:03:06.204Z,14.90
2018-11-05T00:05:35.617Z,12.73
2018-11-05T00:08:04.456Z,13.63
2018-11-05T00:10:33.792Z,12.33
2018-11-05T00:13:02.311Z,12.50
2018-11-05T00:15:31.529Z,12.00
2018-11-05T00:18:00.724Z,12.83
2018-11-05T00:20:29.294Z,11.77
2018-11-05T00:22:58.519Z,10.97
2018-11-05T00:25:27.864Z,11.27
2018-11-05T00:27:56.920Z,11.90
2018-11-05T00:30:26.860Z,13.27
2018-11-05T00:32:56.289Z,12.17
2018-11-05T00:35:25.627Z,10.83
2018-11-05T00:37:54.950Z,10.60
2018-11-05T00:40:25.099Z,11.17
2018-11-05T00:42:54.966Z,13.23
2018-11-05T00:45:24.584Z,12.27
2018-11-05T00:47:53.843Z,11.17
2018-11-05T00:50:22.912Z,10.13
2018-11-05T00:52:51.580Z,12.33
2018-11-05T00:55:20.183Z,9.80
2018-11-05T00:57:49.789Z,10.87
2018-11-05T01:00:19.522Z,10.80
2018-11-05T01:02:48.844Z,12.87
2018-11-05T01:05:18.189Z,10.87
2018-11-05T01:07:47.840Z,10.17
2018-11-05T01:10:17.261Z,11.40
2018-11-05T01:12:46.572Z,12.00
2018-11-05T01:15:17.481Z,10.60
2018-11-05T01:17:47.549Z,11.47
2018-11-05T01:20:17.279Z,10.47
2018-11-05T01:22:47.451Z,10.43
2018-11-05T01:25:17.725Z,9.33
2018-11-05T01:27:47.715Z,9.37
2018-11-05T01:30:17.944Z,9.60
2018-11-05T01:32:48.188Z,8.90
2018-11-05T01:35:18.001Z,10.73
2018-11-05T01:37:48.225Z,9.63
2018-11-05T01:40:17.831Z,9.33
2018-11-05T01:42:47.765Z,9.53
2018-11-05T01:45:16.913Z,9.40
2018-11-05T01:47:45.629Z,9.57
2018-11-05T01:50:15.754Z,9.47
2018-11-05T01:52:45.101Z,8.73
2018-11-05T01:55:14.152Z,9.80
2018-11-05T01:57:43.301Z,10.73
2018-11-05T02:00:14.512Z,9.53
2018-11-05T02:02:44.271Z,10.37
2018-11-05T02:05:13.985Z,9.93
2018-11-05T02:07:45.647Z,10.43
2018-11-05T02:10:16.043Z,9.43
2018-11-05T02:12:44.594Z,12.57
2018-11-05T02:15:14.806Z,10.17
2018-11-05T02:17:44.736Z,9.23
2018-11-05T02:20:14.405Z,12.60
2018-11-05T02:22:44.046Z,9.60
2018-11-05T02:25:13.607Z,8.73
2018-11-05T02:27:42.938Z,13.37
2018-11-05T02:30:14.346Z,8.70
2018-11-05T02:32:44.208Z,9.13
2018-11-05T02:35:13.763Z,8.83
2018-11-05T02:37:43.707Z,14.00
2018-11-05T02:40:19.969Z,9.13
2018-11-05T02:42:49.468Z,8.83
2018-11-05T02:45:19.355Z,10.50
2018-11-05T02:47:48.629Z,9.70
2018-11-05T02:50:18.329Z,9.97
2018-11-05T02:52:47.890Z,13.97
2018-11-05T02:55:18.046Z,9.73
2018-11-05T02:57:47.912Z,9.43
2018-11-05T03:00:19.223Z,9.50
2018-11-05T03:02:49.529Z,10.80
2018-11-05T03:05:20.171Z,10.03
2018-11-05T03:07:50.122Z,9.97
2018-11-05T03:10:19.889Z,10.53
2018-11-05T03:12:49.321Z,9.87
2018-11-05T03:15:19.063Z,12.43
2018-11-05T03:17:48.500Z,11.63
2018-11-05T03:20:18.082Z,8.67
2018-11-05T03:22:47.624Z,9.33
2018-11-05T03:25:17.249Z,11.63
2018-11-05T03:27:47.281Z,9.17
2018-11-05T03:30:17.433Z,9.70
2018-11-05T03:32:46.932Z,9.90
2018-11-05T03:35:16.433Z,10.50
2018-11-05T03:37:46.300Z,9.27
2018-11-05T03:40:15.686Z,10.13
2018-11-05T03:42:45.009Z,10.43
2018-11-05T03:45:15.380Z,10.07
2018-11-05T03:47:45.091Z,9.30
2018-11-05T03:50:16.472Z,10.23
2018-11-05T03:52:46.398Z,9.87
2018-11-05T03:55:16.466Z,9.07
2018-11-05T03:57:46.588Z,9.20
2018-11-05T04:00:17.086Z,9.80
2018-11-05T04:02:46.079Z,8.63
2018-11-05T04:05:15.927Z,9.93
2018-11-05T04:07:44.826Z,10.53
2018-11-05T04:10:14.206Z,9.17
2018-11-05T04:12:44.701Z,10.07
2018-11-05T04:15:15.063Z,12.60
2018-11-05T04:17:58.652Z,9.10
2018-11-05T04:20:28.510Z,11.93
2018-11-05T04:22:58.422Z,8.67
2018-11-05T04:25:28.549Z,10.47
2018-11-05T04:27:58.053Z,10.73
2018-11-05T04:30:27.107Z,10.37
2018-11-05T04:32:56.364Z,10.87
2018-11-05T04:35:25.561Z,8.97
2018-11-05T04:37:55.178Z,9.73
2018-11-05T04:40:24.629Z,9.50
2018-11-05T04:42:54.786Z,14.60
2018-11-05T04:45:24.724Z,10.83
2018-11-05T04:47:55.286Z,10.23
2018-11-05T04:50:26.121Z,11.63
2018-11-05T04:52:56.219Z,11.27
2018-11-05T04:55:26.286Z,10.97
2018-11-05T04:57:56.325Z,11.27
2018-11-05T05:00:27.311Z,12.17
2018-11-05T05:02:57.053Z,9.63
2018-11-05T05:05:26.295Z,10.43
2018-11-05T05:07:56.074Z,9.87
2018-11-05T05:10:25.070Z,9.13
2018-11-05T05:12:53.826Z,11.30
2018-11-05T05:15:23.758Z,9.17
2018-11-05T05:17:53.551Z,9.43
2018-11-05T05:20:23.261Z,16.03
2018-11-05T05:22:53.100Z,13.63
2018-11-05T05:25:22.173Z,12.33
2018-11-05T05:27:50.940Z,9.80
2018-11-05T05:30:20.596Z,11.07
2018-11-05T05:32:50.034Z,11.33
2018-11-05T05:35:20.313Z,10.33
2018-11-05T05:37:49.637Z,13.03
2018-11-05T05:40:19.229Z,12.20
2018-11-05T05:42:49.119Z,13.00
2018-11-05T05:45:19.038Z,11.30
2018-11-05T05:47:48.918Z,11.97
2018-11-05T05:50:18.236Z,13.60
2018-11-05T05:52:48.129Z,10.17
2018-11-05T05:55:17.471Z,16.63
2018-11-05T05:57:47.586Z,10.30
2018-11-05T06:00:17.309Z,12.53
2018-11-05T06:02:47.340Z,11.83
2018-11-05T06:05:16.431Z,11.93
2018-11-05T06:07:46.013Z,12.17
2018-11-05T06:10:15.954Z,13.57
2018-11-05T06:12:45.661Z,13.50
2018-11-05T06:15:16.359Z,11.50
2018-11-05T06:17:45.684Z,12.87
2018-11-05T06:20:16.363Z,12.33
2018-11-05T06:22:46.263Z,12.90
2018-11-05T06:25:15.448Z,13.17
2018-11-05T06:27:44.818Z,12.33
2018-11-05T06:30:20.173Z,13.33
2018-11-05T06:32:50.500Z,10.90
2018-11-05T06:35:20.330Z,12.73
2018-11-05T06:37:49.762Z,11.57
2018-11-05T06:40:20.069Z,12.40
2018-11-05T06:42:49.748Z,12.87
2018-11-05T06:45:21.650Z,17.37
2018-11-05T06:47:51.587Z,16.33
2018-11-05T06:50:23.888Z,16.40
2018-11-05T06:52:53.753Z,16.43
2018-11-05T06:55:23.612Z,19.27
2018-11-05T06:57:52.636Z,16.20
2018-11-05T07:00:22.623Z,17.00
2018-11-05T07:02:52.367Z,15.20
2018-11-05T07:05:21.954Z,13.83
2018-11-05T07:07:50.780Z,19.67
2018-11-05T07:10:20.130Z,17.80
2018-11-05T07:12:50.215Z,18.83
2018-11-05T07:15:20.273Z,20.03
2018-11-05T07:17:50.150Z,19.43
2018-11-05T07:20:20.926Z,16.87
2018-11-05T07:22:51.195Z,18.77
2018-11-05T07:25:20.773Z,17.80
2018-11-05T07:27:49.814Z,17.67
2018-11-05T07:30:23.861Z,14.93
2018-11-05T07:32:54.911Z,18.57
2018-11-05T07:35:24.611Z,18.00
2018-11-05T07:37:53.233Z,20.20
2018-11-05T07:40:23.316Z,18.43
2018-11-05T07:42:51.874Z,18.40
2018-11-05T07:45:23.043Z,16.50
2018-11-05T07:47:52.620Z,16.97
2018-11-05T07:50:22.154Z,16.23
2018-11-05T07:52:51.832Z,17.87
2018-11-05T07:55:21.377Z,20.67
2018-11-05T07:57:51.412Z,18.50
2018-11-05T08:00:25.866Z,23.73
2018-11-05T08:02:56.402Z,22.37
2018-11-05T08:05:26.563Z,36.37
2018-11-05T08:07:56.216Z,19.60
2018-11-05T08:10:25.708Z,18.43
2018-11-05T08:12:54.876Z,18.03
2018-11-05T08:15:25.376Z,18.13
2018-11-05T08:17:54.998Z,15.17
2018-11-05T08:20:24.284Z,13.63
2018-11-05T08:22:53.623Z,16.33
2018-11-05T08:25:22.189Z,19.40
2018-11-05T08:27:50.848Z,18.33
2018-11-05T08:30:21.156Z,17.87
2018-11-05T08:32:50.175Z,19.27
2018-11-05T08:35:19.995Z,18.73
2018-11-05T08:37:49.342Z,15.83
2018-11-05T08:40:20.621Z,21.57
2018-11-05T08:42:51.153Z,19.50
2018-11-05T08:45:23.004Z,15.50
2018-11-05T08:47:52.367Z,16.50
2018-11-05T08:50:22.582Z,18.70
2018-11-05T08:52:51.532Z,16.43
2018-11-05T08:55:21.854Z,18.33
2018-11-05T08:57:53.853Z,16.53
2018-11-05T09:00:28.686Z,24.13
2018-11-05T09:02:58.791Z,16.23
2018-11-05T09:05:28.445Z,14.47
2018-11-05T09:07:59.045Z,24.13
2018-11-05T09:10:28.314Z,16.97
2018-11-05T09:12:58.574Z,14.20
2018-11-05T09:15:27.439Z,12.93
2018-11-05T09:17:57.870Z,15.50
2018-11-05T09:20:28.004Z,14.77
2018-11-05T09:22:57.209Z,14.53
2018-11-05T09:25:26.607Z,13.97
2018-11-05T09:27:55.608Z,17.30
2018-11-05T09:30:25.520Z,19.23
2018-11-05T09:32:55.431Z,16.53
2018-11-05T09:35:24.507Z,17.20
2018-11-05T09:37:54.180Z,14.57
2018-11-05T09:40:24.178Z,12.90
2018-11-05T09:42:53.714Z,26.63
2018-11-05T09:45:25.762Z,24.07
2018-11-05T09:47:55.484Z,64.03
2018-11-05T09:50:25.007Z,31.27
2018-11-05T09:52:54.136Z,36.53
2018-11-05T09:55:23.507Z,29.27
2018-11-05T09:57:53.622Z,38.97
2018-11-05T10:00:24.807Z,33.03
2018-11-05T10:02:59.229Z,28.57
2018-11-05T10:05:29.010Z,20.00
2018-11-05T10:07:59.734Z,15.40
2018-11-05T10:10:29.726Z,16.13
2018-11-05T10:12:59.608Z,13.43
2018-11-05T10:15:29.942Z,17.33
2018-11-05T10:17:59.130Z,13.43
2018-11-05T10:20:28.443Z,12.47
2018-11-05T10:22:58.646Z,14.07
2018-11-05T10:25:28.257Z,15.23
2018-11-05T10:28:03.270Z,15.97
2018-11-05T10:30:32.919Z,14.97
2018-11-05T10:33:02.647Z,14.70
2018-11-05T10:35:38.229Z,14.33
2018-11-05T10:38:08.666Z,13.73
2018-11-05T10:40:38.962Z,19.63
2018-11-05T10:43:09.221Z,14.57
2018-11-05T10:45:38.549Z,16.60
2018-11-05T10:48:08.836Z,15.13
2018-11-05T10:50:38.749Z,18.83
2018-11-05T10:53:08.522Z,14.83
2018-11-05T10:55:37.807Z,15.53
2018-11-05T10:58:09.078Z,17.60
2018-11-05T11:00:45.068Z,18.93
2018-11-05T11:03:16.650Z,15.43
2018-11-05T11:05:49.344Z,16.23
2018-11-05T11:08:19.631Z,16.40
2018-11-05T11:10:49.954Z,19.47
2018-11-05T11:13:20.500Z,19.83
2018-11-05T11:15:50.895Z,14.37
2018-11-05T11:18:20.264Z,17.83
2018-11-05T11:20:50.163Z,19.27
2018-11-05T11:23:20.601Z,16.17
2018-11-05T11:25:49.952Z,18.53
2018-11-05T11:28:20.220Z,14.67
2018-11-05T11:30:49.669Z,14.80
2018-11-05T11:33:18.723Z,15.43
2018-11-05T11:35:48.626Z,21.17
2018-11-05T11:38:18.427Z,25.90
2018-11-05T11:40:48.199Z,19.57
2018-11-05T11:43:17.616Z,16.50
2018-11-05T11:45:47.007Z,19.43
2018-11-05T11:48:16.653Z,18.47
2018-11-05T11:50:45.828Z,23.23
2018-11-05T11:53:15.322Z,19.87
2018-11-05T11:55:44.325Z,16.27
2018-11-05T11:58:14.269Z,14.10
2018-11-05T12:00:44.429Z,13.50
2018-11-05T12:03:15.090Z,15.97
2018-11-05T12:05:46.048Z,20.47
2018-11-05T12:08:16.276Z,19.90
2018-11-05T12:13:23.655Z,20.77
2018-11-05T12:15:52.960Z,28.03
2018-11-05T12:18:22.382Z,47.33
2018-11-05T12:20:51.399Z,46.93
2018-11-05T12:23:20.576Z,26.93
2018-11-05T12:25:51.020Z,18.50
2018-11-05T12:28:21.126Z,15.00
2018-11-05T12:30:50.739Z,15.77
2018-11-05T12:33:21.217Z,17.40
2018-11-05T12:35:51.078Z,21.80
2018-11-05T12:38:20.243Z,20.57
2018-11-05T12:40:49.536Z,19.23
2018-11-05T12:43:18.779Z,19.27
2018-11-05T12:45:49.555Z,21.93
2018-11-05T12:48:19.132Z,24.93
2018-11-05T12:50:49.645Z,18.77
2018-11-05T12:53:19.615Z,18.10
2018-11-05T12:55:49.706Z,15.50
2018-11-05T12:58:19.526Z,12.60
2018-11-05T13:00:49.718Z,15.37
2018-11-05T13:03:18.826Z,11.67
2018-11-05T13:05:50.166Z,14.43
2018-11-05T13:08:19.363Z,13.33
2018-11-05T13:10:49.547Z,13.47
2018-11-05T13:13:20.286Z,12.33
2018-11-05T13:15:49.996Z,15.17
2018-11-05T13:18:19.666Z,10.73
2018-11-05T13:20:49.075Z,12.17
2018-11-05T13:23:22.095Z,15.07
2018-11-05T13:25:51.326Z,12.10
2018-11-05T13:28:20.629Z,13.80
2018-11-05T13:30:50.082Z,13.80
2018-11-05T13:33:20.928Z,10.83
2018-11-05T13:35:51.063Z,11.70
2018-11-05T13:38:21.064Z,12.53
2018-11-05T13:40:50.695Z,11.37
2018-11-05T13:43:20.479Z,14.03
2018-11-05T13:45:50.994Z,12.93
2018-11-05T13:48:21.284Z,14.97
2018-11-05T13:50:50.595Z,16.17
2018-11-05T13:53:21.518Z,16.23
2018-11-05T13:55:51.107Z,10.47
2018-11-05T13:58:19.946Z,11.23
2018-11-05T14:00:49.865Z,12.67
2018-11-05T14:03:20.513Z,13.90
2018-11-05T14:05:49.564Z,10.90
2018-11-05T14:08:19.237Z,10.30
2018-11-05T14:10:49.495Z,12.63
2018-11-05T14:13:19.063Z,14.00
2018-11-05T14:15:49.077Z,14.07
2018-11-05T14:18:19.929Z,12.20
2018-11-05T14:20:49.818Z,12.83
2018-11-05T14:23:19.077Z,11.23
2018-11-05T14:25:48.379Z,13.37
2018-11-05T14:28:18.814Z,12.27
2018-11-05T14:30:48.199Z,13.37
2018-11-05T14:33:17.672Z,20.13
2018-11-05T14:35:47.910Z,13.93
2018-11-05T14:38:17.570Z,14.03
2018-11-05T14:40:46.558Z,11.57
2018-11-05T14:43:16.151Z,13.07
2018-11-05T14:45:45.276Z,12.67
2018-11-05T14:48:14.478Z,12.37
2018-11-05T14:50:44.541Z,9.53
2018-11-05T14:53:14.016Z,12.20
2018-11-05T14:55:44.446Z,11.87
2018-11-05T14:58:14.051Z,10.77
2018-11-05T15:00:43.390Z,9.93
2018-11-05T15:03:12.920Z,15.23
2018-11-05T15:05:42.773Z,16.47
2018-11-05T15:08:12.676Z,15.43
2018-11-05T15:10:41.802Z,11.53
2018-11-05T15:13:11.615Z,11.53
2018-11-05T15:15:40.854Z,15.63
2018-11-05T15:18:11.680Z,15.60
2018-11-05T15:20:41.581Z,14.97
2018-11-05T15:23:10.888Z,17.43
2018-11-05T15:25:40.065Z,15.47
2018-11-05T15:28:09.935Z,17.70
2018-11-05T15:30:39.808Z,15.40
2018-11-05T15:33:09.635Z,18.23
2018-11-05T15:35:38.209Z,13.97
2018-11-05T15:38:07.316Z,13.03
2018-11-05T15:40:36.419Z,12.30
2018-11-05T15:43:06.521Z,14.57
2018-11-05T15:45:35.623Z,12.63
2018-11-05T15:48:06.745Z,13.73
2018-11-05T15:50:36.954Z,14.87
2018-11-05T15:53:07.807Z,18.47
2018-11-05T15:55:39.061Z,18.80
2018-11-05T15:58:09.118Z,26.37
2018-11-05T16:00:38.360Z,20.87
2018-11-05T16:03:08.050Z,19.70
2018-11-05T16:05:37.370Z,22.00
2018-11-05T16:08:07.441Z,15.57
2018-11-05T16:10:38.051Z,17.87
2018-11-05T16:13:07.526Z,13.53
2018-11-05T16:15:36.884Z,16.83
2018-11-05T16:18:07.451Z,14.17
2018-11-05T16:20:37.296Z,12.70
2018-11-05T16:23:06.599Z,16.37
2018-11-05T16:25:35.548Z,17.63
2018-11-05T16:28:05.509Z,22.57
2018-11-05T16:30:35.133Z,17.57
2018-11-05T16:33:04.170Z,19.23
2018-11-05T16:35:34.383Z,19.73
2018-11-05T16:38:04.247Z,19.43
2018-11-05T16:40:33.508Z,21.90
2018-11-05T16:43:02.940Z,20.20
2018-11-05T16:45:32.051Z,18.57
2018-11-05T16:48:01.261Z,23.00
2018-11-05T16:50:30.941Z,17.77
2018-11-05T16:53:00.451Z,13.93
2018-11-05T16:55:30.273Z,12.90
2018-11-05T16:57:59.701Z,14.10
2018-11-05T17:00:29.359Z,14.50
2018-11-05T17:02:58.284Z,14.37
2018-11-05T17:05:27.549Z,16.50
2018-11-05T17:07:56.887Z,14.07
2018-11-05T17:10:26.986Z,13.10
2018-11-05T17:12:56.675Z,12.23
2018-11-05T17:15:26.737Z,17.17
2018-11-05T17:17:56.389Z,25.00
2018-11-05T17:20:26.460Z,28.30
2018-11-05T17:22:55.981Z,34.03
2018-11-05T17:25:25.561Z,24.67
2018-11-05T17:27:54.922Z,24.87
2018-11-05T17:30:24.593Z,18.90
2018-11-05T17:32:53.937Z,19.80
2018-11-05T17:35:23.079Z,21.47
2018-11-05T17:37:52.044Z,23.43
2018-11-05T17:40:22.577Z,22.93
2018-11-05T17:42:51.721Z,18.57
2018-11-05T17:45:21.490Z,13.60
2018-11-05T17:47:51.212Z,13.77
2018-11-05T17:50:21.966Z,14.20
2018-11-05T17:52:51.908Z,19.87
2018-11-05T17:55:22.179Z,15.37
2018-11-05T17:57:51.480Z,18.83
2018-11-05T18:00:21.606Z,25.73
2018-11-05T18:02:51.305Z,21.67
2018-11-05T18:05:20.922Z,20.20
2018-11-05T18:07:50.432Z,22.23
2018-11-05T18:10:20.134Z,19.93
2018-11-05T18:12:49.133Z,25.03
2018-11-05T18:15:19.246Z,18.37
2018-11-05T18:17:48.299Z,25.00
2018-11-05T18:20:18.000Z,25.57
2018-11-05T18:22:47.643Z,26.20
2018-11-05T18:25:18.732Z,25.33
2018-11-05T18:27:48.033Z,24.83
2018-11-05T18:30:17.949Z,22.70
2018-11-05T18:32:47.776Z,26.03
2018-11-05T18:35:16.712Z,20.77
2018-11-05T18:37:48.058Z,25.43
2018-11-05T18:40:18.581Z,21.97
2018-11-05T18:42:47.527Z,26.97
2018-11-05T18:45:16.650Z,22.93
2018-11-05T18:47:45.223Z,25.20
2018-11-05T18:50:14.879Z,21.13
2018-11-05T18:52:44.838Z,23.70
2018-11-05T18:55:15.886Z,29.27
2018-11-05T18:57:45.810Z,31.93
2018-11-05T19:00:23.016Z,26.90
2018-11-05T19:02:52.905Z,32.87
2018-11-05T19:05:22.667Z,28.07
2018-11-05T19:07:51.474Z,23.47
2018-11-05T19:10:21.247Z,21.37
2018-11-05T19:12:52.314Z,25.90
2018-11-05T19:15:21.483Z,25.67
2018-11-05T19:17:51.916Z,22.47
2018-11-05T19:20:21.509Z,22.33
2018-11-05T19:22:52.527Z,22.60
2018-11-05T19:25:21.790Z,22.50
2018-11-05T19:27:52.116Z,27.53
2018-11-05T19:30:25.655Z,31.93
2018-11-05T19:32:55.491Z,29.43
2018-11-05T19:35:25.704Z,23.90
2018-11-05T19:37:55.465Z,29.87
2018-11-05T19:40:25.648Z,25.60
2018-11-05T19:42:55.452Z,25.87
2018-11-05T19:45:24.892Z,28.37
2018-11-05T19:47:55.201Z,26.40
2018-11-05T19:50:25.015Z,28.57
2018-11-05T19:52:54.697Z,25.13
2018-11-05T19:55:24.358Z,31.47
2018-11-05T19:57:54.036Z,27.97
2018-11-05T20:00:27.149Z,33.63
2018-11-05T20:02:56.524Z,35.13
2018-11-05T20:05:26.163Z,30.93
2018-11-05T20:07:56.316Z,30.27
2018-11-05T20:10:25.560Z,31.23
2018-11-05T20:12:54.626Z,27.20
2018-11-05T20:15:24.122Z,30.17
2018-11-05T20:17:54.166Z,29.20
2018-11-05T20:20:23.840Z,34.57
2018-11-05T20:22:53.644Z,23.87
2018-11-05T20:25:22.576Z,28.27
2018-11-05T20:27:52.235Z,26.50
2018-11-05T20:30:22.872Z,29.93
2018-11-05T20:32:53.562Z,31.73
2018-11-05T20:35:22.773Z,27.07
2018-11-05T20:37:52.808Z,32.43
2018-11-05T20:40:22.989Z,27.20
2018-11-05T20:42:53.119Z,27.20
2018-11-05T20:45:23.456Z,25.17
2018-11-05T20:47:52.590Z,25.00
2018-11-05T20:50:22.076Z,27.33
2018-11-05T20:52:51.347Z,25.17
2018-11-05T20:55:20.561Z,27.53
2018-11-05T20:57:49.258Z,23.03
2018-11-05T21:00:21.048Z,27.23
2018-11-05T21:02:50.340Z,23.07
2018-11-05T21:05:19.858Z,24.03
2018-11-05T21:07:48.767Z,31.53
2018-11-05T21:10:18.272Z,24.30
2018-11-05T21:12:48.036Z,25.40
2018-11-05T21:15:18.530Z,24.33
2018-11-05T21:17:48.168Z,26.10
2018-11-05T21:20:17.354Z,23.33
2018-11-05T21:22:47.123Z,23.07
2018-11-05T21:25:17.104Z,23.50
2018-11-05T21:27:46.762Z,24.10
2018-11-05T21:30:17.268Z,26.30
2018-11-05T21:32:46.634Z,27.07
2018-11-05T21:35:17.141Z,25.00
2018-11-05T21:37:46.455Z,27.43
2018-11-05T21:40:16.555Z,25.87
2018-11-05T21:42:45.950Z,26.30
2018-11-05T21:45:15.392Z,25.47
2018-11-05T21:47:45.430Z,29.13
2018-11-05T21:50:16.215Z,38.73
2018-11-05T21:52:46.529Z,43.97
2018-11-05T21:55:15.562Z,70.03
2018-11-05T21:57:47.124Z,75.33
2018-11-05T22:00:19.307Z,92.07
2018-11-05T22:02:53.445Z,49.20
2018-11-05T22:05:22.809Z,40.73
2018-11-05T22:07:52.164Z,39.97
2018-11-05T22:10:21.812Z,43.67
2018-11-05T22:12:51.417Z,44.60
2018-11-05T22:15:20.648Z,34.10
2018-11-05T22:17:50.326Z,37.60
2018-11-05T22:20:19.815Z,31.13
2018-11-05T22:22:48.689Z,32.83
2018-11-05T22:25:18.536Z,28.47
2018-11-05T22:27:48.181Z,28.80
2018-11-05T22:30:18.058Z,29.67
2018-11-05T22:32:48.285Z,25.80
2018-11-05T22:35:17.602Z,25.13
2018-11-05T22:37:46.913Z,29.43
2018-11-05T22:40:16.224Z,24.87
2018-11-05T22:42:45.380Z,22.17
2018-11-05T22:45:15.235Z,25.00
2018-11-05T22:47:45.855Z,23.10
2018-11-05T22:50:15.807Z,26.60
2018-11-05T22:52:45.200Z,31.60
2018-11-05T22:55:14.120Z,27.07
2018-11-05T22:57:43.727Z,30.53
2018-11-05T23:00:19.021Z,23.10
2018-11-05T23:02:53.977Z,26.93
2018-11-05T23:05:23.150Z,28.57
2018-11-05T23:07:53.850Z,23.20
2018-11-05T23:10:23.153Z,23.73
2018-11-05T23:12:52.995Z,26.87
2018-11-05T23:15:22.673Z,29.87
2018-11-05T23:17:52.228Z,27.67
2018-11-05T23:20:21.211Z,24.93
2018-11-05T23:22:50.664Z,24.30
2018-11-05T23:25:20.184Z,23.70
2018-11-05T23:27:52.557Z,25.17
2018-11-05T23:30:22.615Z,27.03
2018-11-05T23:32:52.078Z,23.73
2018-11-05T23:35:22.302Z,23.53
2018-11-05T23:37:51.144Z,29.27
2018-11-05T23:40:20.596Z,27.97
2018-11-05T23:42:50.031Z,25.47
2018-11-05T23:45:19.182Z,23.60
2018-11-05T23:47:49.706Z,21.83
2018-11-05T23:50:20.480Z,26.70
2018-11-05T23:52:52.061Z,25.23
2018-11-05T23:55:21.774Z,24.47
2018-11-05T23:57:51.239Z,20.53
